Aviation Digital Data Service (ADDS)

Output produced by METARs form (0213 UTC 16 January 2019)
found at http://www.aviationweather.gov/metar/data/
 
TAF SABE 152300Z 1600/1624 16010KT CAVOK TX29/1618Z TN19/1609Z 
     BECMG 1602/1605 VRB03KT 7000 
     BECMG 1607/1608 4000 BR BKN010 
     TEMPO 1608/1611 3000 BKN004 
     BECMG 1612/1614 03010KT CAVOK
       
TAF SACO 152300Z 1600/1624 33005KT CAVOK TX33/1619Z TN17/1609Z 
     BECMG 1611/1613 03012KT 
     BECMG 1616/1618 SCT030 FEW040TCU 
     BECMG 1621/1623 CAVOK
       
TAF SARI 152300Z 1600/1624 02005KT 9999 FEW020 BKN100 TX35/1619Z TN23/1609Z 
     BECMG 1608/1610 CAVOK 
     PROB40 
     TEMPO 1615/1621 8000 SHRA FEW050CB
       
TAF SAVC 152300Z 1600/1624 29025G35KT CAVOK TX21/1619Z TN16/1610Z 
     BECMG 1604/1606 20020KT 9999 SCT030 
     PROB40 
     TEMPO 1608/1612 BKN030 
     BECMG 1613/1615 14012KT 
     BECMG 1616/1618 05015KT 
     BECMG 1622/1624 VRB03KT
       
TAF SAME 152300Z 1600/1624 05005KT CAVOK TN17/1610Z TX34/1620Z 
     BECMG 1602/1604 20005KT 
     BECMG 1614/1616 05005KT 9999 FEW040 
     BECMG 1620/1622 09005KT 9999 SCT040 FEW050CB
       
TAF SARF 152300Z 1600/1624 05005KT 9999 FEW025 FEW040CB TX38/1619Z TN26/1609Z 
     PROB40 
     TEMPO 1601/1603 8000 -TSSHRA 
     BECMG 1603/1605 CAVOK
       
TAF SASJ 152300Z 1600/1624 18010KT 9999 OVC025 TX30/1619Z TN18/1610Z 
     TEMPO 1600/1603 7000 SHRA SCT020 BKN025 FEW030TCU 
     BECMG 1606/1608 VRB03KT SCT010 BKN030
       
TAF SASA 152300Z 1600/1624 36005KT 4000 DZ BKN005 OVC012 TX30/1619Z TN17/1610Z 
     BECMG 1602/1604 1500 DZ BR BKN004 OVC010 
     BECMG 1608/1610 6000 SCT005 BKN010 
     BECMG 1612/1614 9999 NSW SCT020 
     BECMG 1618/1620 BKN015 OVC030
       
TAF SASA 152300Z 1600/1624 36005KT 4000 DZ BKN005 OVC012 TX30/1619Z TN17/1610Z 
     BECMG 1602/1604 1500 DZ BR BKN004 OVC010 
     BECMG 1608/1610 6000 SCT005 BKN010 
     BECMG 1612/1614 9999 NSW SCT020 
     BECMG 1618/1620 BKN015 OVC030
       
TAF SAZM 152300Z 1600/1624 07010KT 9999 SCT015 SCT100 TX31/1619Z TN16/1609Z 
     BECMG 1605/1607 36005KT 8000 BKN010 
     TEMPO 1605/1611 3000 BR BKN005 
     BECMG 1612/1614 25010KT 9999 SCT030 
     PROB40 
     TEMPO 1617/1622 6000 TSRA BKN040 FEW045CB
       
TAF SAEZ 152300Z 1600/1624 11010KT CAVOK TX30/1618Z TN18/1610Z 
     PROB40 1605/1610 VRB03KT 2000 BR NSC 
     BECMG 1610/1612 32010KT 
     BECMG 1618/1620 01010KT
       
TAF SARP 152300Z 1600/1624 34005KT 9999 SCT030TCU TX37/1619Z TN25/1609Z 
     PROB40 
     TEMPO 1601/1603 8000 SHRA 
     BECMG 1506/1608 CAVOK
       
TAF SAZN 152300Z 1600/1624 23015G25KT CAVOK TX27/1618Z TN17/1615Z 
     BECMG 1601/1603 23015KT 
     BECMG 1612/1614 24010KT
       
TAF SARE 152300Z 1600/1624 16005KT 6000 -TSRA FEW005 SCT050CB BKN120 TX37/1619Z
TN24/1609Z 
     BECMG 1601/1603 09005KT 8000 -RA BKN020 BKN040 
     BECMG 1609/1611 9999 SCT020 SCT100
       
TAF SAWG 152300Z 1600/1624 25020G30KT 9999 BKN030 TX18/1619Z TN04/1610Z 
     BECMG 1603/1605 SCT030 
     BECMG 1621/1623 23015KT
       
TAF SAWE 152300Z 1600/1624 27020G30KT 9999 SCT020 TX17/1619Z TN03/1610Z 
     BECMG 1602/160 23015KT BKN030 
     BECMG 1622/1624 25025G35KT
       
TAF SAAR 152300Z 1600/1624 16010KT CAVOK TX31/1619Z TN19/1609Z 
     BECMG 1604/1607 14005KT 5000 BR SCT020 
     PROB40 1607/1611 1500 BR SCT010 BKN015 
     BECMG 1612/1614 36005KT CAVOK
       
TAF SASA 152300Z 1600/1624 36005KT 4000 DZ BKN005 OVC012 TX30/1619Z TN17/1610Z 
     BECMG 1602/1604 1500 DZ BR BKN004 OVC010 
     BECMG 1608/1610 6000 SCT005 BKN010 
     BECMG 1612/1614 9999 NSW SCT020 
     BECMG 1618/1620 BKN015 OVC030
       
TAF SASA 152300Z 1600/1624 36005KT 4000 DZ BKN005 OVC012 TX30/1619Z TN17/1610Z 
     BECMG 1602/1604 1500 DZ BR BKN004 OVC010 
     BECMG 1608/1610 6000 SCT005 BKN010 
     BECMG 1612/1614 9999 NSW SCT020 
     BECMG 1618/1620 BKN015 OVC030
       
TAF SAZS 152300Z 1600/1624 30025G35KT 9999 SCT040 SCT100 TX20/1618Z TN13/1610Z 
     BECMG 1601/1604 29015KT 9999 SCT035 SCT100
       
TAF SADF 152300Z 1600/1624 16010KT CAVOK TX29/1618Z TN17/1609Z 
     BECMG 1602/1605 VRB03KT 7000 
     BECMG 1607/1608 4000 BR BKN010 
     TEMPO 1608/1611 2000 BKN004 
     BECMG 1612/1614 03010KT CAVOK
       
TAF SANT 152300Z 1600/1624 35005KT 9999 FEW020 SCT040 BKN100 TX32/1619Z
TN19/1610Z 
     TEMPO 1600/1603 7000 -RA SCT020 BKN040 
     BECMG 1604/1606 SCT035 
     BECMG 1610/1612 08010KT 
     BECMG 1618/1620 SCT020 BKN040
       
TAF SAWH 152300Z 1600/1624 23020G30KT 9999 -SHRA BKN025 SCT060 TX07/1619Z
TN02/1610Z 
     PROB40 
     TEMPO 1602/1606 5000 RA OVC015 
     BECMG 1614/1616 23015G30KT NSW BKN025